createdAt,value
2018-07-02T00:00:07.326Z,101794.34
2018-07-02T00:02:36.528Z,101791.66
2018-07-02T00:05:05.305Z,101787.13
2018-07-02T00:07:33.830Z,101789.64
2018-07-02T00:10:02.443Z,101793.06
2018-07-02T00:12:30.993Z,101781.48
2018-07-02T00:14:59.441Z,101785.26
2018-07-02T00:17:28.640Z,101776.73
2018-07-02T00:19:57.160Z,101783.61
2018-07-02T00:22:25.829Z,101775.25
2018-07-02T00:24:54.987Z,101780.88
2018-07-02T00:27:23.534Z,101776.92
2018-07-02T00:29:51.997Z,101780.40
2018-07-02T00:32:20.956Z,101779.45
2018-07-02T00:34:49.846Z,101781.06
2018-07-02T00:37:18.289Z,101783.75
2018-07-02T00:39:47.069Z,101784.11
2018-07-02T00:42:15.901Z,101782.74
2018-07-02T00:44:44.657Z,101784.00
2018-07-02T00:47:13.133Z,101653.31
2018-07-02T00:49:41.952Z,101784.55
2018-07-02T00:52:10.513Z,101795.02
2018-07-02T00:54:39.227Z,101792.33
2018-07-02T00:57:08.191Z,101792.75
2018-07-02T00:59:36.813Z,101784.80
2018-07-02T01:02:05.621Z,101771.19
2018-07-02T01:04:34.337Z,101766.70
2018-07-02T01:07:03.417Z,101762.23
2018-07-02T01:09:32.335Z,101763.02
2018-07-02T01:12:00.887Z,101758.59
2018-07-02T01:14:29.642Z,101757.22
2018-07-02T01:16:58.117Z,101757.11
2018-07-02T01:19:26.571Z,101757.44
2018-07-02T01:21:55.013Z,101750.33
2018-07-02T01:24:23.448Z,101749.86
2018-07-02T01:26:52.234Z,101744.91
2018-07-02T01:29:20.701Z,101744.42
2018-07-02T01:31:49.486Z,101737.74
2018-07-02T01:34:18.605Z,101736.79
2018-07-02T01:36:47.125Z,101738.94
2018-07-02T01:39:15.677Z,101734.52
2018-07-02T01:41:44.368Z,101735.78
2018-07-02T01:44:13.031Z,101730.47
2018-07-02T01:46:42.310Z,101718.17
2018-07-02T01:49:10.772Z,101727.30
2018-07-02T01:51:39.705Z,101726.30
2018-07-02T01:54:08.189Z,101721.04
2018-07-02T01:56:36.653Z,101715.67
2018-07-02T01:59:05.425Z,101714.23
2018-07-02T02:01:34.415Z,101716.86
2018-07-02T02:04:02.887Z,101719.55
2018-07-02T02:06:32.033Z,101711.67
2018-07-02T02:09:00.692Z,101712.50
2018-07-02T02:11:29.170Z,101716.92
2018-07-02T02:13:57.842Z,101711.55
2018-07-02T02:16:26.674Z,101718.12
2018-07-02T02:18:55.228Z,101713.22
2018-07-02T02:21:23.917Z,101708.75
2018-07-02T02:23:52.422Z,101698.25
2018-07-02T02:26:20.893Z,101700.45
2018-07-02T02:28:49.669Z,101704.45
2018-07-02T02:31:18.240Z,101698.36
2018-07-02T02:33:46.734Z,101693.17
2018-07-02T02:36:15.414Z,101696.80
2018-07-02T02:38:44.096Z,101688.98
2018-07-02T02:41:12.945Z,101690.77
2018-07-02T02:43:41.573Z,101681.22
2018-07-02T02:46:10.082Z,101679.49
2018-07-02T02:48:38.877Z,101680.86
2018-07-02T02:51:07.542Z,101684.97
2018-07-02T02:53:36.505Z,101685.92
2018-07-02T02:56:05.069Z,101672.80
2018-07-02T02:58:33.682Z,101673.69
2018-07-02T03:01:02.238Z,101679.00
2018-07-02T03:03:31.573Z,101674.16
2018-07-02T03:06:00.142Z,101679.53
2018-07-02T03:08:28.820Z,101682.27
2018-07-02T03:10:57.325Z,101671.81
2018-07-02T03:13:25.982Z,101669.61
2018-07-02T03:15:54.709Z,101669.19
2018-07-02T03:18:23.505Z,101666.14
2018-07-02T03:20:52.530Z,101665.67
2018-07-02T03:23:21.253Z,101668.77
2018-07-02T03:25:49.747Z,101658.79
2018-07-02T03:28:18.210Z,101663.63
2018-07-02T03:30:47.025Z,101663.31
2018-07-02T03:33:15.485Z,101656.42
2018-07-02T03:35:43.950Z,101658.27
2018-07-02T03:38:12.750Z,101654.02
2018-07-02T03:40:41.185Z,101647.13
2018-07-02T03:43:09.668Z,101640.67
2018-07-02T03:45:38.354Z,101638.57
2018-07-02T03:48:06.809Z,101634.79
2018-07-02T03:50:35.453Z,101632.27
2018-07-02T03:53:04.337Z,101633.27
2018-07-02T03:55:33.048Z,101631.22
2018-07-02T03:58:08.429Z,101626.06
2018-07-02T04:00:36.877Z,101625.75
2018-07-02T04:03:05.429Z,101628.02
2018-07-02T04:05:34.754Z,101624.17
2018-07-02T04:08:03.509Z,101632.63
2018-07-02T04:10:31.958Z,101623.16
2018-07-02T04:13:00.684Z,101623.73
2018-07-02T04:15:29.104Z,101619.10
2018-07-02T04:17:57.901Z,101623.57
2018-07-02T04:20:26.800Z,101618.46
2018-07-02T04:22:55.255Z,101621.72
2018-07-02T04:25:23.869Z,101618.76
2018-07-02T04:27:53.233Z,101611.91
2018-07-02T04:30:21.708Z,101610.73
2018-07-02T04:32:50.169Z,101609.15
2018-07-02T04:35:19.284Z,101604.50
2018-07-02T04:37:47.961Z,101595.05
2018-07-02T04:40:16.431Z,101600.98
2018-07-02T04:42:44.992Z,101592.33
2018-07-02T04:45:13.545Z,101594.69
2018-07-02T04:47:42.690Z,101597.46
2018-07-02T04:50:11.777Z,101591.02
2018-07-02T04:52:40.761Z,101592.52
2018-07-02T04:55:09.625Z,101588.31
2018-07-02T04:57:38.753Z,101588.53
2018-07-02T05:00:07.505Z,101539.72
2018-07-02T05:02:36.465Z,101578.39
2018-07-02T05:05:05.806Z,101577.20
2018-07-02T05:07:35.039Z,101568.11
2018-07-02T05:10:03.597Z,101570.53
2018-07-02T05:12:32.457Z,101567.25
2018-07-02T05:15:00.912Z,101562.99
2018-07-02T05:17:29.367Z,101563.58
2018-07-02T05:19:58.201Z,101563.36
2018-07-02T05:22:27.048Z,101561.34
2018-07-02T05:24:55.529Z,101557.05
2018-07-02T05:27:24.425Z,101557.20
2018-07-02T05:29:52.847Z,101549.44
2018-07-02T05:32:21.271Z,101543.00
2018-07-02T05:34:50.267Z,101537.45
2018-07-02T05:37:18.693Z,101538.02
2018-07-02T05:39:47.353Z,101532.39
2018-07-02T05:42:16.061Z,101527.27
2018-07-02T05:44:44.496Z,101529.65
2018-07-02T05:47:13.109Z,101526.72
2018-07-02T05:49:41.804Z,101524.69
2018-07-02T05:52:10.446Z,101526.61
2018-07-02T05:54:39.454Z,101523.21
2018-07-02T05:57:07.926Z,101518.98
2018-07-02T05:59:36.684Z,101512.13
2018-07-02T06:02:05.229Z,101513.17
2018-07-02T06:04:33.681Z,101504.52
2018-07-02T06:07:02.557Z,101506.86
2018-07-02T06:09:30.993Z,101503.48
2018-07-02T06:11:59.497Z,101495.70
2018-07-02T06:14:28.606Z,101499.47
2018-07-02T06:16:57.174Z,101495.71
2018-07-02T06:19:25.649Z,101493.61
2018-07-02T06:21:54.619Z,101488.92
2018-07-02T06:24:23.220Z,101490.38
2018-07-02T06:26:51.702Z,101486.22
2018-07-02T06:29:20.457Z,101481.11
2018-07-02T06:31:48.905Z,101478.61
2018-07-02T06:34:17.557Z,101472.64
2018-07-02T06:36:46.205Z,101476.32
2018-07-02T06:39:14.654Z,101470.73
2018-07-02T06:41:43.128Z,101467.84
2018-07-02T06:44:11.981Z,101464.06
2018-07-02T06:46:40.457Z,101455.88
2018-07-02T06:49:09.193Z,101452.50
2018-07-02T06:51:38.033Z,101453.06
2018-07-02T06:54:06.842Z,101449.65
2018-07-02T06:56:36.168Z,101452.88
2018-07-02T06:59:04.641Z,101450.30
2018-07-02T07:01:33.640Z,101449.97
2018-07-02T07:04:02.545Z,101445.20
2018-07-02T07:06:31.053Z,101446.64
2018-07-02T07:09:00.028Z,101452.48
2018-07-02T07:11:28.604Z,101443.24
2018-07-02T07:13:57.045Z,101445.47
2018-07-02T07:16:25.485Z,101446.00
2018-07-02T07:18:54.437Z,101440.72
2018-07-02T07:21:22.877Z,101432.84
2018-07-02T07:23:51.325Z,101431.17
2018-07-02T07:26:20.026Z,101421.12
2018-07-02T07:28:48.794Z,101408.34
2018-07-02T07:31:17.534Z,101414.62
2018-07-02T07:33:46.042Z,101428.41
2018-07-02T07:36:14.826Z,101409.41
2018-07-02T07:38:43.947Z,101410.80
2018-07-02T07:41:13.119Z,101401.95
2018-07-02T07:43:41.601Z,101400.20
2018-07-02T07:46:10.261Z,101392.98
2018-07-02T07:48:38.754Z,101395.25
2018-07-02T07:51:07.223Z,101399.17
2018-07-02T07:53:36.369Z,101387.86
2018-07-02T07:56:05.525Z,101390.95
2018-07-02T07:58:34.942Z,101384.20
2018-07-02T08:01:03.658Z,101374.37
2018-07-02T08:03:32.991Z,101382.30
2018-07-02T08:06:01.485Z,101375.07
2018-07-02T08:08:30.000Z,101371.09
2018-07-02T08:10:58.945Z,101371.98
2018-07-02T08:13:27.839Z,101368.20
2018-07-02T08:15:56.297Z,101364.26
2018-07-02T08:18:26.170Z,101360.62
2018-07-02T08:20:54.614Z,101355.80
2018-07-02T08:23:23.066Z,101348.40
2018-07-02T08:25:52.328Z,101348.29
2018-07-02T08:28:21.145Z,101339.33
2018-07-02T08:30:49.590Z,101327.92
2018-07-02T08:33:18.474Z,101320.45
2018-07-02T08:35:46.923Z,101315.54
2018-07-02T08:38:15.383Z,101313.48
2018-07-02T08:40:44.277Z,101309.41
2018-07-02T08:43:12.729Z,101313.67
2018-07-02T08:45:41.191Z,101310.20
2018-07-02T08:48:09.774Z,101321.22
2018-07-02T08:50:38.205Z,101296.89
2018-07-02T08:53:06.838Z,101309.02
2018-07-02T08:55:36.061Z,101303.06
2018-07-02T08:58:05.048Z,101300.95
2018-07-02T09:00:33.628Z,101303.07
2018-07-02T09:03:02.795Z,101300.00
2018-07-02T09:05:31.438Z,101292.16
2018-07-02T09:07:59.864Z,101293.23
2018-07-02T09:10:28.366Z,101289.05
2018-07-02T09:12:57.021Z,101284.59
2018-07-02T09:15:25.992Z,101291.11
2018-07-02T09:17:54.810Z,101291.34
2018-07-02T09:20:23.261Z,101292.33
2018-07-02T09:22:51.706Z,101290.52
2018-07-02T09:25:20.694Z,101275.80
2018-07-02T09:27:49.137Z,101283.41
2018-07-02T09:30:17.667Z,101282.36
2018-07-02T09:32:46.300Z,101285.00
2018-07-02T09:35:14.742Z,101291.34
2018-07-02T09:37:43.243Z,101287.17
2018-07-02T09:40:11.797Z,101291.19
2018-07-02T09:42:40.313Z,101283.44
2018-07-02T09:45:09.031Z,101289.48
2018-07-02T09:47:38.497Z,101283.14
2018-07-02T09:50:07.077Z,101271.95
2018-07-02T09:52:35.717Z,101274.34
2018-07-02T09:55:04.813Z,101280.66
2018-07-02T09:57:34.217Z,101263.81
2018-07-02T10:00:02.954Z,101266.68
2018-07-02T10:02:32.182Z,101263.38
2018-07-02T10:05:00.635Z,101259.33
2018-07-02T10:07:29.108Z,101249.73
2018-07-02T10:09:57.777Z,101255.75
2018-07-02T10:12:26.221Z,101259.95
2018-07-02T10:14:54.683Z,101252.00
2018-07-02T10:17:23.350Z,101241.13
2018-07-02T10:19:51.807Z,101235.22
2018-07-02T10:22:20.249Z,101230.77
2018-07-02T10:24:49.041Z,101232.42
2018-07-02T10:27:17.513Z,101230.37
2018-07-02T10:29:45.981Z,101234.54
2018-07-02T10:32:15.118Z,101229.16
2018-07-02T10:34:43.668Z,101232.02
2018-07-02T10:37:12.106Z,101238.70
2018-07-02T10:39:41.259Z,101237.15
2018-07-02T10:42:09.717Z,101243.42
2018-07-02T10:44:38.399Z,101243.70
2018-07-02T10:47:06.920Z,101233.64
2018-07-02T10:49:35.426Z,101241.06
2018-07-02T10:52:03.918Z,101232.47
2018-07-02T10:54:32.569Z,101228.61
2018-07-02T10:57:01.033Z,101232.59
2018-07-02T10:59:29.487Z,101232.78
2018-07-02T11:01:58.649Z,101238.33
2018-07-02T11:04:27.249Z,101239.14
2018-07-02T11:06:55.717Z,101233.42
2018-07-02T11:09:24.544Z,101240.80
2018-07-02T11:11:53.182Z,101237.42
2018-07-02T11:14:27.964Z,101217.67
2018-07-02T11:16:56.845Z,101234.11
2018-07-02T11:19:25.301Z,101228.44
2018-07-02T11:21:53.953Z,101234.52
2018-07-02T11:24:22.386Z,101226.75
2018-07-02T11:26:50.818Z,101224.19
2018-07-02T11:29:19.377Z,101226.07
2018-07-02T11:31:48.064Z,101220.98
2018-07-02T11:34:16.912Z,101221.34
2018-07-02T11:36:52.360Z,101229.76
2018-07-02T11:39:20.797Z,101228.91
2018-07-02T11:41:49.225Z,101228.64
2018-07-02T11:44:19.053Z,101222.91
2018-07-02T11:46:47.540Z,101228.70
2018-07-02T11:49:16.285Z,101220.83
2018-07-02T11:51:45.704Z,101211.17
2018-07-02T11:54:14.697Z,101226.56
2018-07-02T11:56:43.137Z,101231.03
2018-07-02T11:59:11.773Z,101225.34
2018-07-02T12:01:40.209Z,101230.59
2018-07-02T12:04:08.748Z,101237.37
2018-07-02T12:06:37.732Z,101230.95
2018-07-02T12:09:08.517Z,101242.60
2018-07-02T12:11:36.989Z,101250.27
2018-07-02T12:14:05.573Z,101246.63
2018-07-02T12:16:34.062Z,101227.83
2018-07-02T12:19:02.603Z,101253.48
2018-07-02T12:21:31.556Z,101259.84
2018-07-02T12:24:00.013Z,101259.63
2018-07-02T12:26:28.486Z,101264.92
2018-07-02T12:28:57.063Z,101260.30
2018-07-02T12:31:25.533Z,101254.83
2018-07-02T12:33:53.976Z,101253.16
2018-07-02T12:36:23.267Z,101259.56
2018-07-02T12:38:51.777Z,101263.31
2018-07-02T12:41:20.406Z,101264.09
2018-07-02T12:43:49.312Z,101259.37
2018-07-02T12:46:17.757Z,101267.09
2018-07-02T12:48:46.187Z,101270.72
2018-07-02T12:51:14.630Z,101261.93
2018-07-02T12:53:43.091Z,101263.33
2018-07-02T12:56:11.623Z,101265.23
2018-07-02T12:58:40.368Z,101269.27
2018-07-02T13:01:08.888Z,101267.53
2018-07-02T13:03:37.319Z,101267.08
2018-07-02T13:06:06.709Z,101269.66
2018-07-02T13:08:35.855Z,101269.63
2018-07-02T13:11:04.372Z,101274.92
2018-07-02T13:13:33.715Z,101279.28
2018-07-02T13:16:02.124Z,101276.11
2018-07-02T13:18:30.606Z,101292.64
2018-07-02T13:20:59.099Z,101282.49
2018-07-02T13:23:27.561Z,101279.00
2018-07-02T13:25:55.989Z,101276.42
2018-07-02T13:28:25.085Z,101279.59
2018-07-02T13:30:53.561Z,101277.85
2018-07-02T13:33:22.043Z,101280.16
2018-07-02T13:35:52.341Z,101283.80
2018-07-02T13:38:21.257Z,101279.86
2018-07-02T13:40:49.708Z,101282.96
2018-07-02T13:43:18.864Z,101287.87
2018-07-02T13:45:47.757Z,101293.74
2018-07-02T13:48:17.246Z,101292.98
2018-07-02T13:50:45.729Z,101293.08
2018-07-02T13:53:14.177Z,101287.81
2018-07-02T13:55:42.645Z,101292.34
2018-07-02T13:58:11.265Z,101289.31
2018-07-02T14:00:39.689Z,101290.23
2018-07-02T14:03:08.175Z,101292.02
2018-07-02T14:05:37.022Z,101292.03
2018-07-02T14:08:05.985Z,101277.42
2018-07-02T14:10:34.962Z,101285.81
2018-07-02T14:13:03.432Z,101285.38
2018-07-02T14:15:32.041Z,101281.84
2018-07-02T14:18:00.498Z,101277.42
2018-07-02T14:20:29.247Z,101283.18
2018-07-02T14:22:57.693Z,101286.72
2018-07-02T14:25:26.237Z,101283.17
2018-07-02T14:27:54.781Z,101284.50
2018-07-02T14:30:23.224Z,101288.05
2018-07-02T14:32:51.752Z,101285.83
2018-07-02T14:35:20.330Z,101280.08
2018-07-02T14:37:48.926Z,101286.72
2018-07-02T14:40:18.081Z,101281.41
2018-07-02T14:42:47.082Z,101283.17
2018-07-02T14:45:15.803Z,101280.96
2018-07-02T14:47:44.031Z,101279.63
2018-07-02T14:50:12.839Z,101284.06
2018-07-02T14:52:41.275Z,101283.63
2018-07-02T14:55:09.733Z,101283.18
2018-07-02T14:57:38.662Z,101257.93
2018-07-02T15:00:07.309Z,101284.95
2018-07-02T15:02:35.817Z,101256.59
2018-07-02T15:05:04.657Z,101281.84
2018-07-02T15:07:33.099Z,101280.07
2018-07-02T15:10:01.606Z,101276.52
2018-07-02T15:12:30.388Z,101284.50
2018-07-02T15:14:59.081Z,101277.40
2018-07-02T15:17:27.653Z,101275.19
2018-07-02T15:19:56.916Z,101276.50
2018-07-02T15:22:25.508Z,101272.96
2018-07-02T15:24:53.995Z,101275.62
2018-07-02T15:27:23.209Z,101278.72
2018-07-02T15:29:51.664Z,101276.52
2018-07-02T15:32:20.369Z,101278.74
2018-07-02T15:34:48.897Z,101283.17
2018-07-02T15:37:17.351Z,101289.83
2018-07-02T15:39:46.087Z,101285.39
2018-07-02T15:42:14.614Z,101280.08
2018-07-02T15:44:43.057Z,101272.98
2018-07-02T15:47:11.590Z,101279.19
2018-07-02T15:49:40.099Z,101284.95
2018-07-02T15:52:09.028Z,101285.39
2018-07-02T15:54:37.483Z,101282.73
2018-07-02T15:57:06.925Z,101280.08
2018-07-02T15:59:35.381Z,101284.51
2018-07-02T16:02:04.062Z,101287.17
2018-07-02T16:04:32.569Z,101287.61
2018-07-02T16:07:01.130Z,101291.59
2018-07-02T16:09:36.681Z,101288.05
2018-07-02T16:12:05.231Z,101281.41
2018-07-02T16:14:33.993Z,101276.09
2018-07-02T16:17:02.717Z,101276.09
2018-07-02T16:19:31.165Z,101271.66
2018-07-02T16:21:59.701Z,101274.31
2018-07-02T16:24:28.417Z,101270.33
2018-07-02T16:26:56.925Z,101274.32
2018-07-02T16:29:25.815Z,101271.66
2018-07-02T16:31:54.610Z,101276.09
2018-07-02T16:34:23.172Z,101273.87
2018-07-02T16:36:51.706Z,101266.78
2018-07-02T16:39:20.597Z,101272.09
2018-07-02T16:41:49.047Z,101270.76
2018-07-02T16:44:17.975Z,101267.20
2018-07-02T16:46:47.049Z,101274.28
2018-07-02T16:49:15.510Z,101268.92
2018-07-02T16:51:44.160Z,101271.12
2018-07-02T16:54:13.125Z,101267.56
2018-07-02T16:56:41.612Z,101267.55
2018-07-02T16:59:10.096Z,101267.09
2018-07-02T17:01:39.166Z,101260.44
2018-07-02T17:04:08.054Z,101261.77
2018-07-02T17:06:36.611Z,101263.52
2018-07-02T17:09:09.369Z,101261.73
2018-07-02T17:11:38.506Z,101273.26
2018-07-02T17:14:07.079Z,101269.28
2018-07-02T17:16:36.098Z,101266.62
2018-07-02T17:19:05.195Z,101271.45
2018-07-02T17:21:33.750Z,101267.89
2018-07-02T17:24:02.408Z,101265.23
2018-07-02T17:26:30.949Z,101268.31
2018-07-02T17:28:59.887Z,101264.31
2018-07-02T17:31:28.478Z,101263.85
2018-07-02T17:33:57.039Z,101263.41
2018-07-02T17:36:25.507Z,101258.98
2018-07-02T17:38:54.057Z,101258.12
2018-07-02T17:41:22.597Z,101256.36
2018-07-02T17:43:51.094Z,101262.55
2018-07-02T17:46:19.724Z,101262.09
2018-07-02T17:48:48.256Z,101263.86
2018-07-02T17:51:16.717Z,101262.09
2018-07-02T17:53:45.189Z,101249.27
2018-07-02T17:56:14.306Z,101253.24
2018-07-02T17:58:42.737Z,101246.61
2018-07-02T18:01:12.404Z,101240.41
2018-07-02T18:03:43.213Z,101242.63
2018-07-02T18:06:11.662Z,101241.29
2018-07-02T18:08:40.269Z,101239.06
2018-07-02T18:11:08.905Z,101237.28
2018-07-02T18:13:37.393Z,100872.22
2018-07-02T18:16:06.113Z,101231.97
2018-07-02T18:18:34.754Z,101235.03
2018-07-02T18:21:03.658Z,101232.80
2018-07-02T18:23:32.289Z,101230.61
2018-07-02T18:26:01.247Z,101231.94
2018-07-02T18:28:29.717Z,101233.69
2018-07-02T18:30:58.349Z,101233.67
2018-07-02T18:33:26.826Z,101226.55
2018-07-02T18:35:55.383Z,101226.09
2018-07-02T18:38:23.997Z,101224.30
2018-07-02T18:40:52.433Z,101218.97
2018-07-02T18:43:20.932Z,101212.78
2018-07-02T18:45:49.544Z,101211.02
2018-07-02T18:48:18.237Z,101208.35
2018-07-02T18:50:46.674Z,101211.02
2018-07-02T18:53:15.153Z,101209.25
2018-07-02T18:55:43.700Z,101207.47
2018-07-02T18:58:12.162Z,101204.81
2018-07-02T19:00:40.730Z,101206.14
2018-07-02T19:03:09.339Z,100736.30
2018-07-02T19:05:37.935Z,101210.56
2018-07-02T19:08:06.603Z,101206.58
2018-07-02T19:10:36.124Z,101214.54
2018-07-02T19:13:07.350Z,101207.47
2018-07-02T19:15:35.804Z,101210.55
2018-07-02T19:18:05.160Z,101215.41
2018-07-02T19:20:34.189Z,101212.30
2018-07-02T19:23:02.638Z,101209.20
2018-07-02T19:25:31.216Z,101210.53
2018-07-02T19:28:00.393Z,101209.64
2018-07-02T19:30:28.911Z,101205.22
2018-07-02T19:32:57.431Z,101206.09
2018-07-02T19:35:26.119Z,101204.76
2018-07-02T19:37:54.585Z,101202.98
2018-07-02T19:40:23.059Z,101204.76
2018-07-02T19:42:52.026Z,101199.89
2018-07-02T19:45:20.605Z,101203.41
2018-07-02T19:47:49.142Z,101197.67
2018-07-02T19:50:17.924Z,101199.87
2018-07-02T19:52:46.357Z,101199.87
2018-07-02T19:55:14.899Z,101193.67
2018-07-02T19:57:43.852Z,101185.27
2018-07-02T20:00:12.347Z,101194.53
2018-07-02T20:02:40.861Z,101198.06
2018-07-02T20:05:09.831Z,101198.05
2018-07-02T20:07:38.314Z,101196.72
2018-07-02T20:10:07.009Z,101195.40
2018-07-02T20:12:35.930Z,101199.35
2018-07-02T20:15:04.458Z,101191.84
2018-07-02T20:17:32.914Z,101183.02
2018-07-02T20:20:01.995Z,101179.04
2018-07-02T20:22:30.660Z,101179.91
2018-07-02T20:24:59.205Z,101181.68
2018-07-02T20:27:28.076Z,101173.73
2018-07-02T20:29:56.518Z,101171.53
2018-07-02T20:32:24.979Z,101167.55
2018-07-02T20:34:54.108Z,101162.25
2018-07-02T20:37:22.645Z,101167.54
2018-07-02T20:39:51.093Z,101164.88
2018-07-02T20:42:19.741Z,101165.76
2018-07-02T20:44:48.274Z,101169.73
2018-07-02T20:47:17.049Z,101161.34
2018-07-02T20:49:46.246Z,101167.53
2018-07-02T20:52:15.096Z,101165.32
2018-07-02T20:54:43.590Z,101163.56
2018-07-02T20:57:12.861Z,101164.45
2018-07-02T20:59:41.291Z,101165.76
2018-07-02T21:02:09.808Z,101171.51
2018-07-02T21:04:38.828Z,101169.73
2018-07-02T21:07:07.349Z,101164.88
2018-07-02T21:09:35.793Z,101164.42
2018-07-02T21:12:04.966Z,101165.75
2018-07-02T21:14:34.606Z,101148.52
2018-07-02T21:17:03.531Z,101153.81
2018-07-02T21:19:32.222Z,101145.37
2018-07-02T21:22:00.842Z,101144.48
2018-07-02T21:24:30.223Z,101138.75
2018-07-02T21:26:59.145Z,101140.97
2018-07-02T21:29:28.009Z,101140.09
2018-07-02T21:31:56.802Z,101144.52
2018-07-02T21:34:26.115Z,101133.03
2018-07-02T21:36:55.539Z,101104.25
2018-07-02T21:39:25.031Z,101129.07
2018-07-02T21:41:55.269Z,101129.95
2018-07-02T21:44:23.723Z,101125.53
2018-07-02T21:46:53.189Z,101127.73
2018-07-02T21:49:22.221Z,101126.41
2018-07-02T21:51:50.682Z,101121.53
2018-07-02T21:54:19.221Z,101122.83
2018-07-02T21:56:47.984Z,101123.68
2018-07-02T21:59:16.439Z,101124.09
2018-07-02T22:01:44.912Z,101121.84
2018-07-02T22:04:13.719Z,101121.37
2018-07-02T22:06:42.256Z,101126.20
2018-07-02T22:09:11.701Z,101122.64
2018-07-02T22:11:40.492Z,101121.31
2018-07-02T22:14:08.990Z,101126.59
2018-07-02T22:16:37.893Z,101120.84
2018-07-02T22:19:07.129Z,101125.23
2018-07-02T22:21:35.581Z,101124.78
2018-07-02T22:24:04.096Z,101121.22
2018-07-02T22:26:33.913Z,101125.13
2018-07-02T22:29:02.365Z,101115.38
2018-07-02T22:31:30.862Z,101115.78
2018-07-02T22:33:59.513Z,101109.11
2018-07-02T22:36:28.142Z,101111.75
2018-07-02T22:39:03.364Z,101105.55
2018-07-02T22:41:32.073Z,101102.89
2018-07-02T22:44:00.493Z,101100.66
2018-07-02T22:46:28.965Z,101110.80
2018-07-02T22:48:57.453Z,101113.41
2018-07-02T22:51:25.885Z,101108.09
2018-07-02T22:53:54.458Z,101111.60
2018-07-02T22:56:22.989Z,101103.64
2018-07-02T22:58:51.627Z,101108.48
2018-07-02T23:01:20.570Z,101103.62
2018-07-02T23:03:49.089Z,101098.31
2018-07-02T23:06:17.525Z,101102.73
2018-07-02T23:08:46.291Z,101098.78
2018-07-02T23:11:15.092Z,101110.69
2018-07-02T23:13:43.589Z,101100.95
2018-07-02T23:16:12.672Z,101105.34
2018-07-02T23:18:41.478Z,101107.53
2018-07-02T23:21:09.905Z,101102.22
2018-07-02T23:23:38.789Z,101103.56
2018-07-02T23:26:07.382Z,101105.31
2018-07-02T23:28:36.505Z,101107.48
2018-07-02T23:31:05.409Z,101109.23
2018-07-02T23:33:33.934Z,101103.06
2018-07-02T23:36:02.567Z,101105.27
2018-07-02T23:38:31.458Z,101102.16
2018-07-02T23:41:00.295Z,101103.04
2018-07-02T23:43:28.805Z,101099.05
2018-07-02T23:45:57.503Z,101101.69
2018-07-02T23:48:26.270Z,101095.03
2018-07-02T23:50:54.716Z,101095.00
2018-07-02T23:53:23.587Z,101093.20
2018-07-02T23:55:52.357Z,101095.38
2018-07-02T23:58:21.222Z,101095.77
